createdAt,value
2023-03-07T00:01:08.909Z,97146.47
2023-03-07T00:03:37.112Z,97138.34
2023-03-07T00:06:09.060Z,97136.53
2023-03-07T00:08:36.529Z,97144.97
2023-03-07T00:11:06.521Z,97142.63
2023-03-07T00:13:34.919Z,97141.13
2023-03-07T00:16:11.171Z,97143.91
2023-03-07T00:18:38.181Z,97134.09
2023-03-07T00:21:08.788Z,97134.06
2023-03-07T00:23:38.096Z,97132.91
2023-03-07T00:26:07.488Z,97140.84
2023-03-07T00:28:35.515Z,97129.84
2023-03-07T00:31:05.674Z,97138.34
2023-03-07T00:33:32.683Z,97110.25
2023-03-07T00:36:02.211Z,97130.47
2023-03-07T00:38:31.090Z,97134.63
2023-03-07T00:41:06.436Z,97135.28
2023-03-07T00:43:34.238Z,97117.84
2023-03-07T00:46:01.891Z,97125.47
2023-03-07T00:48:29.440Z,97130.78
2023-03-07T00:50:57.355Z,97119.47
2023-03-07T00:53:25.284Z,97113.34
2023-03-07T00:55:55.924Z,97107.22
2023-03-07T00:58:23.325Z,97107.69
2023-03-07T01:00:50.641Z,97109.34
2023-03-07T01:03:18.169Z,97094.38
2023-03-07T01:05:45.415Z,97099.88
2023-03-07T01:08:12.874Z,97105.13
2023-03-07T01:10:39.908Z,97094.03
2023-03-07T01:13:07.113Z,97092.66
2023-03-07T01:15:34.091Z,97094.16
2023-03-07T01:18:01.035Z,97089.84
2023-03-07T01:20:28.010Z,97073.09
2023-03-07T01:22:54.869Z,97090.19
2023-03-07T01:25:21.770Z,97088.19
2023-03-07T01:27:48.645Z,97086.50
2023-03-07T01:30:15.700Z,97075.78
2023-03-07T01:32:42.692Z,97098.47
2023-03-07T01:35:09.808Z,97093.16
2023-03-07T01:37:36.867Z,97083.06
2023-03-07T01:40:05.063Z,97082.84
2023-03-07T01:42:32.428Z,97091.97
2023-03-07T01:45:04.823Z,97094.28
2023-03-07T01:47:31.728Z,97089.78
2023-03-07T01:50:01.222Z,97090.44
2023-03-07T01:52:34.992Z,97086.13
2023-03-07T01:55:11.229Z,97067.72
2023-03-07T01:57:41.196Z,97085.13
2023-03-07T02:00:14.608Z,97081.81
2023-03-07T02:02:45.988Z,97067.88
2023-03-07T02:05:27.541Z,97071.34
2023-03-07T02:08:21.305Z,97066.19
2023-03-07T02:11:10.059Z,97059.59
2023-03-07T02:13:52.415Z,97064.06
2023-03-07T02:16:34.412Z,97068.19
2023-03-07T02:19:32.809Z,97077.22
2023-03-07T02:22:36.528Z,97075.19
2023-03-07T02:25:17.231Z,97071.53
2023-03-07T02:27:46.274Z,97063.53
2023-03-07T02:30:13.319Z,97067.19
2023-03-07T02:32:40.542Z,97064.38
2023-03-07T02:35:15.729Z,97062.72
2023-03-07T02:37:46.330Z,97058.22
2023-03-07T02:40:16.826Z,97056.19
2023-03-07T02:42:46.869Z,97059.88
2023-03-07T02:45:17.803Z,97056.41
2023-03-07T02:47:45.767Z,97054.38
2023-03-07T02:50:14.149Z,97060.53
2023-03-07T02:52:41.579Z,97050.72
2023-03-07T02:55:09.554Z,97058.53
2023-03-07T02:57:36.592Z,97041.97
2023-03-07T03:00:07.422Z,97056.88
2023-03-07T03:02:34.774Z,97049.06
2023-03-07T03:05:01.797Z,97048.59
2023-03-07T03:07:28.761Z,97060.72
2023-03-07T03:09:55.724Z,97060.53
2023-03-07T03:12:22.659Z,97058.84
2023-03-07T03:14:49.654Z,97042.97
2023-03-07T03:17:17.221Z,97051.91
2023-03-07T03:19:44.097Z,97067.13
2023-03-07T03:22:11.277Z,97057.34
2023-03-07T03:24:42.516Z,97059.34
2023-03-07T03:27:10.312Z,97064.31
2023-03-07T03:29:37.319Z,97059.00
2023-03-07T03:32:04.619Z,97025.88
2023-03-07T03:34:31.619Z,97065.25
2023-03-07T03:36:58.481Z,97066.06
2023-03-07T03:39:25.461Z,97066.06
2023-03-07T03:41:52.399Z,97057.09
2023-03-07T03:44:19.330Z,97064.06
2023-03-07T03:46:48.559Z,97062.03
2023-03-07T03:49:17.116Z,97056.47
2023-03-07T03:51:44.021Z,97064.06
2023-03-07T03:54:10.917Z,97065.25
2023-03-07T03:56:37.919Z,97066.06
2023-03-07T03:59:04.988Z,97048.72
2023-03-07T04:01:31.925Z,97064.25
2023-03-07T04:03:59.478Z,97056.63
2023-03-07T04:06:29.883Z,97057.63
2023-03-07T04:08:57.422Z,97065.25
2023-03-07T04:11:25.135Z,97061.28
2023-03-07T04:13:52.527Z,97064.78
2023-03-07T04:16:20.401Z,97066.44
2023-03-07T04:18:47.368Z,97074.25
2023-03-07T04:21:14.549Z,97066.06
2023-03-07T04:23:41.502Z,97061.41
2023-03-07T04:26:10.119Z,97069.03
2023-03-07T04:28:43.382Z,97066.75
2023-03-07T04:31:15.175Z,97058.47
2023-03-07T04:33:42.885Z,97077.00
2023-03-07T04:36:10.984Z,97069.03
2023-03-07T04:38:39.367Z,97072.69
2023-03-07T04:41:13.800Z,97056.78
2023-03-07T04:43:40.892Z,97073.97
2023-03-07T04:46:09.171Z,97071.31
2023-03-07T04:48:36.399Z,97073.66
2023-03-07T04:51:03.705Z,97069.31
2023-03-07T04:53:30.560Z,97054.72
2023-03-07T04:56:01.857Z,97040.66
2023-03-07T04:58:30.751Z,97062.81
2023-03-07T05:00:58.235Z,97062.19
2023-03-07T05:03:26.417Z,97058.03
2023-03-07T05:05:53.622Z,97060.34
2023-03-07T05:08:21.288Z,97054.91
2023-03-07T05:10:48.275Z,97049.56
2023-03-07T05:13:15.183Z,97049.94
2023-03-07T05:15:42.163Z,97050.41
2023-03-07T05:18:09.108Z,97051.59
2023-03-07T05:20:36.207Z,97035.94
2023-03-07T05:23:03.087Z,97054.13
2023-03-07T05:25:29.954Z,97056.16
2023-03-07T05:27:56.924Z,97059.81
2023-03-07T05:30:23.818Z,97054.66
2023-03-07T05:32:51.650Z,96996.59
2023-03-07T05:35:19.131Z,97045.75
2023-03-07T05:37:46.051Z,97058.38
2023-03-07T05:40:14.321Z,97054.59
2023-03-07T05:42:41.354Z,97035.72
2023-03-07T05:45:09.400Z,97049.66
2023-03-07T05:47:36.471Z,97046.00
2023-03-07T05:50:03.936Z,97038.06
2023-03-07T05:52:30.843Z,97051.31
2023-03-07T05:54:57.741Z,97033.38
2023-03-07T05:57:24.726Z,97057.25
2023-03-07T05:59:51.770Z,97054.28
2023-03-07T06:02:18.748Z,97057.41
2023-03-07T06:04:47.197Z,97047.94
2023-03-07T06:07:14.329Z,97060.34
2023-03-07T06:09:41.361Z,97050.34
2023-03-07T06:12:10.411Z,97058.81
2023-03-07T06:14:37.377Z,97052.13
2023-03-07T06:17:05.933Z,97054.25
2023-03-07T06:19:34.156Z,97053.19
2023-03-07T06:22:01.232Z,97042.66
2023-03-07T06:24:28.219Z,97048.72
2023-03-07T06:26:55.064Z,97045.34
2023-03-07T06:29:22.240Z,97042.50
2023-03-07T06:31:49.218Z,97048.38
2023-03-07T06:34:16.200Z,97050.63
2023-03-07T06:36:43.159Z,97039.59
2023-03-07T06:39:10.125Z,97024.38
2023-03-07T06:41:37.091Z,97046.16
2023-03-07T06:44:04.263Z,97039.72
2023-03-07T06:46:31.974Z,97041.16
2023-03-07T06:48:58.928Z,97032.81
2023-03-07T06:51:25.963Z,97046.56
2023-03-07T06:53:52.873Z,97043.63
2023-03-07T06:56:19.920Z,97036.75
2023-03-07T06:58:46.911Z,97037.84
2023-03-07T07:01:21.664Z,97037.16
2023-03-07T07:03:48.895Z,97039.28
2023-03-07T07:06:16.189Z,97043.22
2023-03-07T07:08:43.208Z,97036.50
2023-03-07T07:11:10.194Z,97041.25
2023-03-07T07:13:37.113Z,97035.63
2023-03-07T07:16:06.154Z,97023.56
2023-03-07T07:18:33.725Z,97031.69
2023-03-07T07:21:00.728Z,97029.69
2023-03-07T07:23:27.900Z,97015.69
2023-03-07T07:25:54.817Z,97031.81
2023-03-07T07:28:22.100Z,97028.41
2023-03-07T07:30:49.037Z,97025.34
2023-03-07T07:33:16.255Z,97023.31
2023-03-07T07:35:44.354Z,97032.00
2023-03-07T07:38:12.045Z,97026.97
2023-03-07T07:40:39.512Z,97025.19
2023-03-07T07:43:06.678Z,97016.94
2023-03-07T07:45:33.645Z,97027.31
2023-03-07T07:48:00.542Z,97028.44
2023-03-07T07:50:27.499Z,97030.88
2023-03-07T07:52:54.715Z,97025.38
2023-03-07T07:55:22.219Z,97029.81
2023-03-07T07:57:49.152Z,97020.16
2023-03-07T08:00:21.269Z,97021.38
2023-03-07T08:02:52.370Z,97009.84
2023-03-07T08:05:20.663Z,97024.47
2023-03-07T08:07:48.297Z,97013.38
2023-03-07T08:10:16.310Z,97011.19
2023-03-07T08:12:44.941Z,97004.19
2023-03-07T08:15:12.773Z,96998.91
2023-03-07T08:17:39.693Z,96994.38
2023-03-07T08:20:08.718Z,96995.88
2023-03-07T08:22:38.500Z,96995.78
2023-03-07T08:25:06.684Z,97002.22
2023-03-07T08:27:33.680Z,97004.09
2023-03-07T08:30:00.971Z,96995.25
2023-03-07T08:32:28.508Z,96989.69
2023-03-07T08:34:55.450Z,96996.28
2023-03-07T08:37:22.339Z,96993.00
2023-03-07T08:39:49.345Z,96982.28
2023-03-07T08:42:16.244Z,96998.75
2023-03-07T08:44:43.239Z,97000.63
2023-03-07T08:47:11.648Z,97007.47
2023-03-07T08:49:38.558Z,96991.59
2023-03-07T08:52:05.748Z,97001.69
2023-03-07T08:54:32.783Z,97003.34
2023-03-07T08:57:00.690Z,96999.63
2023-03-07T08:59:27.641Z,96996.94
2023-03-07T09:01:56.839Z,96995.09
2023-03-07T09:04:24.708Z,96987.28
2023-03-07T09:06:51.760Z,97001.91
2023-03-07T09:09:18.693Z,96994.28
2023-03-07T09:11:45.660Z,96996.56
2023-03-07T09:14:12.599Z,96979.44
2023-03-07T09:16:39.674Z,96980.88
2023-03-07T09:19:06.733Z,96973.84
2023-03-07T09:21:33.659Z,96982.28
2023-03-07T09:24:00.567Z,96977.31
2023-03-07T09:26:27.487Z,96974.66
2023-03-07T09:28:54.384Z,96968.94
2023-03-07T09:31:21.464Z,96969.13
2023-03-07T09:33:48.524Z,96967.06
2023-03-07T09:36:16.587Z,96973.88
2023-03-07T09:38:43.619Z,96965.63
2023-03-07T09:41:41.262Z,96957.78
2023-03-07T09:44:18.362Z,96958.78
2023-03-07T09:46:54.260Z,96954.44
2023-03-07T09:49:38.454Z,96953.63
2023-03-07T09:52:14.679Z,96940.84
2023-03-07T09:54:47.116Z,96936.75
2023-03-07T09:57:26.559Z,96937.19
2023-03-07T10:00:19.308Z,96942.78
2023-03-07T10:02:52.643Z,96950.59
2023-03-07T10:05:25.576Z,96946.06
2023-03-07T10:07:53.455Z,96948.13
2023-03-07T10:10:27.306Z,96942.53
2023-03-07T10:13:09.532Z,96942.75
2023-03-07T10:15:49.124Z,96941.91
2023-03-07T10:18:34.390Z,96947.22
2023-03-07T10:21:48.425Z,96921.66
2023-03-07T10:24:27.541Z,96926.56
2023-03-07T10:27:05.728Z,96917.69
2023-03-07T10:29:54.993Z,96923.00
2023-03-07T10:32:45.617Z,96904.94
2023-03-07T10:35:12.470Z,96907.78
2023-03-07T10:37:50.628Z,96905.69
2023-03-07T10:40:26.001Z,96913.31
2023-03-07T10:42:54.852Z,96895.50
2023-03-07T10:45:22.213Z,96907.84
2023-03-07T10:47:49.182Z,96900.25
2023-03-07T10:50:38.560Z,96899.66
2023-03-07T10:53:19.384Z,96888.56
2023-03-07T10:55:46.969Z,96888.56
2023-03-07T10:58:19.951Z,96896.84
2023-03-07T11:00:57.600Z,96888.19
2023-03-07T11:03:42.561Z,96888.59
2023-03-07T11:06:28.852Z,96887.78
2023-03-07T11:08:59.091Z,96877.53
2023-03-07T11:11:32.274Z,96880.78
2023-03-07T11:14:13.375Z,96881.56
2023-03-07T11:16:50.873Z,96870.84
2023-03-07T11:19:40.909Z,96865.25
2023-03-07T11:22:33.834Z,96862.97
2023-03-07T11:25:16.049Z,96866.22
2023-03-07T11:27:45.792Z,96868.50
2023-03-07T11:30:33.732Z,96858.22
2023-03-07T11:33:10.016Z,96863.03
2023-03-07T11:35:59.357Z,96851.66
2023-03-07T11:38:40.782Z,96837.81
2023-03-07T11:41:30.802Z,96854.63
2023-03-07T11:44:01.067Z,96858.91
2023-03-07T11:47:13.633Z,96853.28
2023-03-07T11:49:55.518Z,96851.88
2023-03-07T11:52:48.996Z,96860.59
2023-03-07T11:55:27.192Z,96851.88
2023-03-07T11:58:29.336Z,96842.78
2023-03-07T12:00:59.162Z,96849.28
2023-03-07T12:03:35.100Z,96839.00
2023-03-07T12:06:10.206Z,96840.22
2023-03-07T12:08:54.291Z,96836.31
2023-03-07T12:11:58.563Z,96821.13
2023-03-07T12:14:31.320Z,96828.72
2023-03-07T12:17:07.351Z,96820.91
2023-03-07T12:20:11.924Z,96824.53
2023-03-07T12:23:04.971Z,96811.84
2023-03-07T12:25:43.766Z,96813.13
2023-03-07T12:28:27.225Z,96819.19
2023-03-07T12:31:02.465Z,96815.63
2023-03-07T12:33:51.763Z,96803.13
2023-03-07T12:36:44.853Z,96817.03
2023-03-07T12:39:39.755Z,96809.56
2023-03-07T12:42:28.184Z,96806.97
2023-03-07T12:45:20.181Z,96806.22
2023-03-07T12:48:09.335Z,96806.75
2023-03-07T12:50:52.819Z,96819.63
2023-03-07T12:53:30.490Z,96810.19
2023-03-07T12:56:16.483Z,96804.78
2023-03-07T12:58:51.052Z,96797.34
2023-03-07T13:01:28.126Z,96793.09
2023-03-07T13:04:18.188Z,96795.06
2023-03-07T13:06:46.574Z,96796.31
2023-03-07T13:09:27.993Z,96797.03
2023-03-07T13:12:20.458Z,96797.50
2023-03-07T13:14:56.438Z,96787.00
2023-03-07T13:17:35.006Z,96797.63
2023-03-07T13:20:31.154Z,96799.56
2023-03-07T13:23:11.089Z,96787.00
2023-03-07T13:25:42.470Z,96795.53
2023-03-07T13:28:46.797Z,96786.81
2023-03-07T13:31:16.518Z,96779.38
2023-03-07T13:33:44.203Z,96782.34
2023-03-07T13:36:32.969Z,96784.84
2023-03-07T13:39:00.099Z,96788.03
2023-03-07T13:41:56.445Z,96777.19
2023-03-07T13:44:38.698Z,96780.06
2023-03-07T13:47:44.782Z,96776.56
2023-03-07T13:50:38.311Z,96769.53
2023-03-07T13:53:18.798Z,96772.63
2023-03-07T13:55:51.111Z,96750.16
2023-03-07T13:58:26.736Z,96754.78
2023-03-07T14:00:58.571Z,96763.75
2023-03-07T14:03:31.199Z,96758.06
2023-03-07T14:06:08.588Z,96756.19
2023-03-07T14:08:35.949Z,96757.59
2023-03-07T14:11:03.987Z,96753.13
2023-03-07T14:13:49.689Z,96745.00
2023-03-07T14:16:37.726Z,96756.25
2023-03-07T14:19:17.116Z,96761.16
2023-03-07T14:21:46.751Z,96747.34
2023-03-07T14:24:39.471Z,96738.72
2023-03-07T14:27:13.174Z,96746.91
2023-03-07T14:29:52.345Z,96743.19
2023-03-07T14:32:28.661Z,96731.78
2023-03-07T14:34:55.914Z,96726.41
2023-03-07T14:37:28.871Z,96728.69
2023-03-07T14:39:58.590Z,96727.00
2023-03-07T14:42:52.840Z,96719.84
2023-03-07T14:45:25.881Z,96728.00
2023-03-07T14:48:29.754Z,96720.53
2023-03-07T14:51:02.418Z,96706.56
2023-03-07T14:53:32.550Z,96704.41
2023-03-07T14:56:00.638Z,96707.38
2023-03-07T14:58:30.705Z,96710.38
2023-03-07T15:00:58.682Z,96700.31
2023-03-07T15:03:25.828Z,96707.34
2023-03-07T15:05:55.941Z,96709.56
2023-03-07T15:08:24.579Z,96700.03
2023-03-07T15:11:07.190Z,96700.63
2023-03-07T15:13:46.068Z,96710.03
2023-03-07T15:16:20.029Z,96700.09
2023-03-07T15:18:53.744Z,96705.31
2023-03-07T15:21:24.517Z,96705.47
2023-03-07T15:23:57.106Z,96703.63
2023-03-07T15:26:26.919Z,96701.50
2023-03-07T15:29:09.141Z,96690.78
2023-03-07T15:31:54.793Z,96682.69
2023-03-07T15:34:29.157Z,96692.22
2023-03-07T15:37:13.159Z,96691.59
2023-03-07T15:39:40.110Z,96698.44
2023-03-07T15:42:21.781Z,96694.53
2023-03-07T15:45:00.390Z,96703.22
2023-03-07T15:47:30.152Z,96694.59
2023-03-07T15:50:03.814Z,96689.91
2023-03-07T15:52:37.299Z,96698.75
2023-03-07T15:55:08.478Z,96686.19
2023-03-07T15:58:08.063Z,96689.53
2023-03-07T16:00:38.603Z,96682.34
2023-03-07T16:03:21.056Z,96679.19
2023-03-07T16:05:48.113Z,96676.34
2023-03-07T16:08:17.002Z,96672.06
2023-03-07T16:11:12.102Z,96686.50
2023-03-07T16:13:42.881Z,96686.94
2023-03-07T16:16:22.069Z,96680.19
2023-03-07T16:18:50.966Z,96676.28
2023-03-07T16:21:19.496Z,96679.81
2023-03-07T16:23:47.340Z,96684.41
2023-03-07T16:26:17.613Z,96684.22
2023-03-07T16:28:44.819Z,96678.88
2023-03-07T16:31:13.930Z,96683.44
2023-03-07T16:33:40.856Z,96673.38
2023-03-07T16:36:10.412Z,96675.00
2023-03-07T16:38:37.369Z,96669.91
2023-03-07T16:41:06.856Z,96670.34
2023-03-07T16:43:38.623Z,96671.13
2023-03-07T16:46:11.366Z,96678.34
2023-03-07T16:48:38.299Z,96677.56
2023-03-07T16:51:05.769Z,96664.59
2023-03-07T16:53:32.633Z,96673.44
2023-03-07T16:55:59.721Z,96668.09
2023-03-07T16:58:31.562Z,96666.25
2023-03-07T17:00:59.663Z,96672.00
2023-03-07T17:03:29.900Z,96672.25
2023-03-07T17:05:56.819Z,96675.94
2023-03-07T17:08:23.732Z,96678.81
2023-03-07T17:10:50.655Z,96672.44
2023-03-07T17:13:18.987Z,96664.84
2023-03-07T17:15:47.252Z,96660.31
2023-03-07T17:18:14.222Z,96667.28
2023-03-07T17:20:41.747Z,96663.41
2023-03-07T17:23:08.953Z,96673.69
2023-03-07T17:25:35.976Z,96674.72
2023-03-07T17:28:07.442Z,96680.50
2023-03-07T17:30:34.790Z,96679.25
2023-03-07T17:33:01.709Z,96669.81
2023-03-07T17:35:30.700Z,96674.09
2023-03-07T17:37:57.843Z,96676.56
2023-03-07T17:40:24.749Z,96672.25
2023-03-07T17:42:52.432Z,96664.44
2023-03-07T17:45:19.405Z,96679.44
2023-03-07T17:47:50.546Z,96661.78
2023-03-07T17:50:19.681Z,96680.91
2023-03-07T17:52:46.610Z,96673.31
2023-03-07T17:55:15.241Z,96670.00
2023-03-07T17:57:42.255Z,96666.94
2023-03-07T18:00:13.369Z,96662.63
2023-03-07T18:02:44.324Z,96664.88
2023-03-07T18:05:13.340Z,96666.97
2023-03-07T18:07:43.294Z,96674.34
2023-03-07T18:10:13.113Z,96665.94
2023-03-07T18:12:40.270Z,96660.78
2023-03-07T18:15:13.199Z,96662.03
2023-03-07T18:17:47.834Z,96662.66
2023-03-07T18:20:18.702Z,96662.47
2023-03-07T18:22:46.328Z,96664.94
2023-03-07T18:25:15.749Z,96660.81
2023-03-07T18:27:43.188Z,96669.84
2023-03-07T18:30:12.093Z,96665.75
2023-03-07T18:32:39.371Z,96670.69
2023-03-07T18:35:07.018Z,96666.56
2023-03-07T18:37:34.055Z,96670.69
2023-03-07T18:40:01.127Z,96671.94
2023-03-07T18:42:28.179Z,96666.97
2023-03-07T18:44:55.076Z,96663.91
2023-03-07T18:47:21.950Z,96660.44
2023-03-07T18:49:51.361Z,96667.41
2023-03-07T18:52:19.022Z,96668.66
2023-03-07T18:54:45.967Z,96671.72
2023-03-07T18:57:12.868Z,96673.38
2023-03-07T18:59:39.825Z,96674.19
2023-03-07T19:02:06.781Z,96662.69
2023-03-07T19:04:33.701Z,96669.88
2023-03-07T19:07:00.857Z,96664.09
2023-03-07T19:09:28.022Z,96663.72
2023-03-07T19:11:55.030Z,96661.63
2023-03-07T19:14:22.029Z,96668.22
2023-03-07T19:16:49.095Z,96656.09
2023-03-07T19:19:16.312Z,96661.84
2023-03-07T19:21:43.229Z,96657.09
2023-03-07T19:24:12.193Z,96652.78
2023-03-07T19:26:40.323Z,96655.88
2023-03-07T19:29:07.265Z,96654.22
2023-03-07T19:31:35.263Z,96648.84
2023-03-07T19:34:03.695Z,96654.19
2023-03-07T19:36:33.201Z,96644.69
2023-03-07T19:39:00.128Z,96653.94
2023-03-07T19:41:29.405Z,96649.41
2023-03-07T19:43:58.255Z,96656.81
2023-03-07T19:46:25.984Z,96638.47
2023-03-07T19:48:53.629Z,96641.41
2023-03-07T19:51:23.153Z,96638.28
2023-03-07T19:53:50.903Z,96644.84
2023-03-07T19:56:25.711Z,96643.41
2023-03-07T19:58:52.697Z,96646.69
2023-03-07T20:01:21.236Z,96645.69
2023-03-07T20:03:48.664Z,96628.81
2023-03-07T20:06:22.124Z,96650.41
2023-03-07T20:08:50.185Z,96637.41
2023-03-07T20:11:20.175Z,96640.91
2023-03-07T20:13:48.529Z,96633.91
2023-03-07T20:16:17.134Z,96645.03
2023-03-07T20:18:44.673Z,96628.16
2023-03-07T20:21:13.996Z,96642.97
2023-03-07T20:23:44.974Z,96633.06
2023-03-07T20:26:16.003Z,96626.69
2023-03-07T20:28:43.483Z,96622.38
2023-03-07T20:31:11.027Z,96620.50
2023-03-07T20:33:46.285Z,96622.75
2023-03-07T20:36:28.240Z,96628.13
2023-03-07T20:38:57.652Z,96624.41
2023-03-07T20:41:27.110Z,96621.94
2023-03-07T20:43:57.143Z,96607.16
2023-03-07T20:46:24.113Z,96626.50
2023-03-07T20:48:54.764Z,96624.63
2023-03-07T20:51:24.629Z,96638.00
2023-03-07T20:53:54.887Z,96632.88
2023-03-07T20:56:23.349Z,96629.38
2023-03-07T20:58:50.762Z,96628.75
2023-03-07T21:01:19.429Z,96626.91
2023-03-07T21:03:48.313Z,96629.81
2023-03-07T21:06:16.318Z,96632.69
2023-03-07T21:08:43.978Z,96602.66
2023-03-07T21:11:13.277Z,96615.38
2023-03-07T21:13:42.770Z,96630.41
2023-03-07T21:16:23.649Z,96624.47
2023-03-07T21:18:50.565Z,96620.72
2023-03-07T21:21:20.125Z,96627.72
2023-03-07T21:23:47.371Z,96619.91
2023-03-07T21:26:17.075Z,96623.41
2023-03-07T21:28:44.725Z,96622.81
2023-03-07T21:31:14.324Z,96608.78
2023-03-07T21:33:44.149Z,96616.00
2023-03-07T21:36:14.084Z,96615.41
2023-03-07T21:38:41.436Z,96612.09
2023-03-07T21:41:08.767Z,96622.44
2023-03-07T21:43:35.938Z,96623.44
2023-03-07T21:46:07.353Z,96602.72
2023-03-07T21:48:34.869Z,96615.41
2023-03-07T21:51:02.445Z,96615.41
2023-03-07T21:53:29.685Z,96608.22
2023-03-07T21:55:58.214Z,96619.94
2023-03-07T21:58:25.557Z,96608.41
2023-03-07T22:00:55.392Z,96598.78
2023-03-07T22:03:24.047Z,96605.53
2023-03-07T22:05:51.843Z,96609.88
2023-03-07T22:08:20.858Z,96593.44
2023-03-07T22:11:02.085Z,96604.72
2023-03-07T22:13:29.909Z,96614.41
2023-03-07T22:15:57.871Z,96611.72
2023-03-07T22:18:25.467Z,96608.03
2023-03-07T22:20:52.905Z,96599.78
2023-03-07T22:23:19.821Z,96610.91
2023-03-07T22:25:46.846Z,96614.41
2023-03-07T22:28:16.894Z,96613.38
2023-03-07T22:30:43.807Z,96606.38
2023-03-07T22:33:10.969Z,96608.03
2023-03-07T22:35:37.888Z,96603.88
2023-03-07T22:38:04.815Z,96605.16
2023-03-07T22:40:31.725Z,96611.09
2023-03-07T22:42:58.580Z,96606.81
2023-03-07T22:45:25.536Z,96609.25
2023-03-07T22:47:52.440Z,96608.84
2023-03-07T22:50:19.410Z,96621.22
2023-03-07T22:52:46.271Z,96608.25
2023-03-07T22:55:13.179Z,96614.41
2023-03-07T22:57:40.068Z,96608.84
2023-03-07T23:00:08.398Z,96608.25
2023-03-07T23:02:35.295Z,96620.59
2023-03-07T23:05:02.223Z,96615.22
2023-03-07T23:07:29.175Z,96616.50
2023-03-07T23:09:56.042Z,96624.50
2023-03-07T23:12:22.944Z,96629.66
2023-03-07T23:14:49.856Z,96575.22
2023-03-07T23:17:16.727Z,96625.94
2023-03-07T23:19:43.641Z,96632.34
2023-03-07T23:22:10.621Z,96636.03
2023-03-07T23:24:37.516Z,96636.88
2023-03-07T23:27:04.524Z,96634.00
2023-03-07T23:29:31.432Z,96640.56
2023-03-07T23:31:58.751Z,96627.00
2023-03-07T23:34:25.603Z,96631.56
2023-03-07T23:36:52.506Z,96634.41
2023-03-07T23:39:19.632Z,96635.84
2023-03-07T23:41:46.615Z,96649.22
2023-03-07T23:44:13.646Z,96645.94
2023-03-07T23:46:40.634Z,96642.63
2023-03-07T23:49:07.529Z,96641.41
2023-03-07T23:51:34.541Z,96635.19
2023-03-07T23:54:01.423Z,96637.06
2023-03-07T23:56:28.514Z,96638.91
2023-03-07T23:58:55.430Z,96640.38
